Time;durP1;ratioP1;P1;durP2;ratioP2;P2;SDS_P1;SDS_P2;PMS_P1;PMS_P2;Temp;Humidity;BMP_temperature;BMP_pressure;BME280_temperature;BME280_humidity;BME280_pressure;Samples;Min_cycle;Max_cycle;Signal;HPM_P1;HPM_P2
2021/09/08 00:01:14;;;;;;;33.83;20.35;;;;;;;16.43;71.44;101842.66;5086061;28;20119;-72
2021/09/08 00:03:39;;;;;;;33.28;19.98;;;;;;;16.44;71.98;101835.53;5066350;28;20031;-70
2021/09/08 00:06:05;;;;;;;32.55;20.42;;;;;;;16.42;71.67;101829.34;5085082;28;20021;-70
2021/09/08 00:08:31;;;;;;;34.05;20.25;;;;;;;16.31;72.06;101824.03;5085428;28;20067;-70
2021/09/08 00:10:56;;;;;;;34.35;21.30;;;;;;;16.26;72.44;101825.84;5083633;28;20025;-70
2021/09/08 00:13:21;;;;;;;32.97;19.85;;;;;;;16.22;72.40;101824.94;5086512;28;20114;-71
2021/09/08 00:15:47;;;;;;;33.63;19.60;;;;;;;16.20;72.51;101829.41;5082807;28;20030;-71
2021/09/08 00:18:12;;;;;;;32.33;19.95;;;;;;;16.15;72.29;101825.84;5086123;28;20028;-65
2021/09/08 00:20:38;;;;;;;30.60;18.98;;;;;;;16.07;72.50;101817.03;5084251;28;20028;-65
2021/09/08 00:23:03;;;;;;;33.70;19.88;;;;;;;16.13;72.82;101825.00;5084451;28;20512;-63
2021/09/08 00:25:29;;;;;;;34.08;19.63;;;;;;;16.10;73.43;101820.53;5085519;28;20040;-66
2021/09/08 00:27:54;;;;;;;32.28;19.08;;;;;;;16.10;72.09;101819.66;5082871;28;20028;-68
2021/09/08 00:30:19;;;;;;;32.55;19.48;;;;;;;16.01;72.31;101817.91;5086523;28;20027;-66
2021/09/08 00:32:45;;;;;;;31.38;18.65;;;;;;;15.90;72.70;101809.97;5082784;28;20024;-68
2021/09/08 00:35:11;;;;;;;32.53;19.45;;;;;;;15.84;72.81;101810.88;5085120;28;20056;-66
2021/09/08 00:37:38;;;;;;;30.40;18.02;;;;;;;15.79;72.55;101811.75;5084576;28;20136;-68
2021/09/08 00:40:04;;;;;;;31.38;18.67;;;;;;;15.72;73.30;101812.63;5083629;28;20112;-68
2021/09/08 00:42:30;;;;;;;31.83;19.77;;;;;;;15.81;73.58;101794.88;5084772;28;20379;-67
2021/09/08 00:44:55;;;;;;;31.73;19.52;;;;;;;15.77;73.99;101801.06;5082865;28;20026;-68
2021/09/08 00:47:20;;;;;;;31.70;19.17;;;;;;;15.66;73.85;101801.06;5085697;28;20021;-67
2021/09/08 00:49:46;;;;;;;32.53;19.55;;;;;;;15.67;74.40;101799.31;5082463;28;20043;-66
2021/09/08 00:52:13;;;;;;;31.65;19.92;;;;;;;15.67;74.41;101797.53;5085036;28;20021;-68
2021/09/08 00:54:40;;;;;;;30.90;20.00;;;;;;;15.62;74.68;101796.63;5083480;28;20023;-67
2021/09/08 00:57:10;;;;;;;34.55;22.05;;;;;;;15.61;75.92;101792.22;5084198;28;20375;-66
2021/09/08 00:59:35;;;;;;;33.60;21.55;;;;;;;15.63;74.92;101793.09;5084106;28;20027;-66
2021/09/08 01:02:04;;;;;;;34.92;21.70;;;;;;;15.65;75.81;101791.31;5083316;28;20018;-67
2021/09/08 01:04:30;;;;;;;32.90;21.45;;;;;;;15.66;75.69;101784.19;5084750;28;20383;-66
2021/09/08 01:07:00;;;;;;;33.00;21.13;;;;;;;15.62;75.37;101788.63;5082724;28;20027;-67
2021/09/08 01:09:26;;;;;;;34.95;22.35;;;;;;;15.74;75.28;101792.16;5066444;28;20466;-68
2021/09/08 01:11:51;;;;;;;34.55;22.15;;;;;;;15.68;75.70;101791.31;5081863;28;20067;-66
2021/09/08 01:14:16;;;;;;;33.85;22.05;;;;;;;15.61;75.79;101788.63;5085288;28;20107;-66
2021/09/08 01:16:42;;;;;;;34.25;21.67;;;;;;;15.66;75.51;101786.88;5082324;28;20035;-66
2021/09/08 01:19:07;;;;;;;34.55;22.00;;;;;;;15.63;75.31;101789.53;5083828;28;20437;-66
2021/09/08 01:21:32;;;;;;;34.75;22.65;;;;;;;15.53;75.94;101791.31;5084098;28;20102;-65
2021/09/08 01:24:06;;;;;;;34.67;21.75;;;;;;;15.53;75.92;101791.31;5082509;28;20506;-68
2021/09/08 01:26:31;;;;;;;35.40;23.10;;;;;;;15.56;76.36;101788.66;5084180;28;20024;-65
2021/09/08 01:28:56;;;;;;;35.72;24.35;;;;;;;15.54;76.20;101789.53;5082159;28;20036;-64
2021/09/08 01:31:22;;;;;;;35.38;22.83;;;;;;;15.55;76.43;101786.00;5085136;28;20068;-66
2021/09/08 01:33:47;;;;;;;36.35;23.73;;;;;;;15.44;76.72;101794.00;5063510;28;20027;-66
2021/09/08 01:36:13;;;;;;;35.92;22.98;;;;;;;15.37;76.44;101792.22;5084238;28;20032;-65
2021/09/08 01:38:38;;;;;;;35.38;23.15;;;;;;;15.33;76.66;101797.56;5082999;28;20031;-63
2021/09/08 01:41:03;;;;;;;34.95;23.58;;;;;;;15.34;77.29;101788.66;5082828;28;20028;-65
2021/09/08 01:43:29;;;;;;;34.40;22.65;;;;;;;15.32;76.47;101785.13;5084217;28;20024;-65
2021/09/08 01:45:54;;;;;;;35.85;23.42;;;;;;;15.30;76.84;101786.00;5081265;28;20096;-64
2021/09/08 01:48:20;;;;;;;36.85;23.98;;;;;;;15.29;77.44;101778.91;5084358;28;20031;-65
2021/09/08 01:50:46;;;;;;;39.67;25.50;;;;;;;15.18;79.00;101778.91;5081915;28;20035;-64
2021/09/08 01:53:12;;;;;;;36.35;24.45;;;;;;;15.16;78.50;101778.03;5083307;28;20029;-65
2021/09/08 01:55:38;;;;;;;37.03;25.00;;;;;;;15.19;77.99;101772.72;5083069;28;20031;-66
2021/09/08 01:58:03;;;;;;;35.92;24.35;;;;;;;15.18;78.54;101770.03;5082716;28;20029;-65
2021/09/08 02:00:29;;;;;;;37.47;25.75;;;;;;;15.18;78.65;101767.38;5083780;28;20020;-62
2021/09/08 02:02:54;;;;;;;36.38;24.65;;;;;;;15.19;78.18;101763.81;5081207;28;20025;-64
2021/09/08 02:05:20;;;;;;;36.50;24.35;;;;;;;15.07;78.38;101778.00;5084517;28;20115;-73
2021/09/08 02:07:45;;;;;;;36.42;23.85;;;;;;;15.04;78.20;101767.38;5081555;28;20024;-73
2021/09/08 02:10:12;;;;;;;37.25;24.77;;;;;;;14.96;78.13;101765.59;5083591;28;20460;-73
2021/09/08 02:12:37;;;;;;;37.47;25.48;;;;;;;14.94;78.58;101763.81;5082403;28;20089;-72
2021/09/08 02:15:04;;;;;;;38.30;26.35;;;;;;;14.94;80.62;101766.47;5082132;28;20438;-73
2021/09/08 02:17:30;;;;;;;40.50;26.83;;;;;;;14.94;81.43;101759.38;5083743;28;20424;-73
2021/09/08 02:19:55;;;;;;;38.72;25.73;;;;;;;14.95;81.71;101758.47;5081094;28;20051;-72
2021/09/08 02:22:21;;;;;;;39.65;26.40;;;;;;;14.88;81.79;101751.41;5084421;28;20024;-70
2021/09/08 02:24:46;;;;;;;37.05;25.27;;;;;;;14.69;80.84;101749.59;5081289;28;20029;-73
2021/09/08 02:27:12;;;;;;;36.72;25.00;;;;;;;14.52;81.63;101750.41;5083246;28;20028;-70
2021/09/08 02:29:37;;;;;;;39.72;27.42;;;;;;;14.61;82.27;101752.22;5082371;28;20485;-73
2021/09/08 02:32:03;;;;;;;37.25;25.33;;;;;;;14.61;81.72;101752.22;5082347;28;20032;-73
2021/09/08 02:34:29;;;;;;;36.90;24.17;;;;;;;14.53;81.71;101744.19;5083386;28;20020;-73
2021/09/08 02:36:55;;;;;;;38.92;27.10;;;;;;;14.60;83.13;101740.66;5080938;28;20126;-73
2021/09/08 02:39:20;;;;;;;36.85;26.08;;;;;;;14.56;81.34;101752.19;5084464;28;20025;-73
2021/09/08 02:41:45;;;;;;;36.85;25.17;;;;;;;14.52;80.79;101745.09;5081264;28;20558;-67
2021/09/08 02:44:11;;;;;;;37.05;25.35;;;;;;;14.59;81.07;101753.94;5083182;28;20435;-70
2021/09/08 02:46:36;;;;;;;37.45;24.90;;;;;;;14.55;80.88;101746.88;5082857;28;20504;-66
2021/09/08 02:49:01;;;;;;;38.00;25.17;;;;;;;14.52;80.83;101746.84;5081287;28;20080;-71
2021/09/08 02:51:26;;;;;;;36.60;24.67;;;;;;;14.52;81.50;101745.09;5083756;28;20128;-70
2021/09/08 02:53:52;;;;;;;37.08;25.70;;;;;;;14.44;81.89;101738.84;5080586;28;20078;-72
2021/09/08 02:56:17;;;;;;;36.15;25.35;;;;;;;14.35;81.55;101744.16;5083788;28;20028;-72
2021/09/08 02:58:42;;;;;;;39.25;27.27;;;;;;;14.38;82.03;101738.84;5081794;28;20032;-72
2021/09/08 03:01:11;;;;;;;37.33;25.55;;;;;;;14.39;82.25;101743.28;5082668;28;20031;-72
2021/09/08 03:03:37;;;;;;;37.30;24.90;;;;;;;14.39;82.68;101738.84;5082755;28;20026;-71
2021/09/08 03:06:02;;;;;;;38.90;26.13;;;;;;;14.46;82.41;101734.44;5085478;28;20115;-71
2021/09/08 03:08:28;;;;;;;37.80;25.05;;;;;;;14.44;81.98;101741.50;5087172;28;20028;-72
2021/09/08 03:10:53;;;;;;;36.83;24.65;;;;;;;14.39;81.80;101748.63;5084125;28;20024;-72
2021/09/08 03:13:18;;;;;;;40.80;26.52;;;;;;;14.41;82.39;101744.16;5087805;28;20115;-72
2021/09/08 03:15:45;;;;;;;38.13;26.23;;;;;;;14.36;82.18;101743.25;5085097;28;20036;-71
2021/09/08 03:18:10;;;;;;;37.45;25.75;;;;;;;14.35;82.70;101734.41;5086293;28;20467;-72
2021/09/08 03:20:36;;;;;;;37.60;25.27;;;;;;;14.35;82.31;101738.84;5086465;28;20030;-71
2021/09/08 03:23:02;;;;;;;37.42;26.00;;;;;;;14.30;81.81;101741.50;5084797;28;20032;-72
2021/09/08 03:25:28;;;;;;;35.97;25.20;;;;;;;14.19;82.19;101741.44;5087318;28;20379;-65
2021/09/08 03:27:54;;;;;;;38.00;26.13;;;;;;;14.19;82.13;101737.91;5083845;28;20029;-61
2021/09/08 03:30:20;;;;;;;35.95;24.58;;;;;;;14.13;82.51;101730.78;5083872;28;20074;-63
2021/09/08 03:32:45;;;;;;;38.67;26.20;;;;;;;14.14;82.57;101735.22;5086663;28;20036;-62
2021/09/08 03:35:11;;;;;;;38.05;26.63;;;;;;;14.07;82.78;101730.78;5084927;28;20020;-62
2021/09/08 03:37:36;;;;;;;38.40;26.20;;;;;;;14.12;82.98;101731.66;5085140;28;20463;-63
2021/09/08 03:40:02;;;;;;;39.28;26.65;;;;;;;14.10;83.80;101729.00;5086326;28;20484;-63
2021/09/08 03:42:28;;;;;;;37.92;26.52;;;;;;;14.02;83.92;101729.84;5083962;28;20035;-62
2021/09/08 03:44:53;;;;;;;38.60;27.17;;;;;;;14.03;83.78;101727.19;5087271;28;20020;-64
2021/09/08 03:47:18;;;;;;;38.63;26.35;;;;;;;14.06;83.14;101731.66;5083731;28;20025;-63
2021/09/08 03:49:46;;;;;;;38.05;26.38;;;;;;;14.07;82.64;101731.66;5086023;28;20052;-62
2021/09/08 03:52:16;;;;;;;38.33;26.67;;;;;;;14.02;82.53;101724.53;5084202;28;20028;-62
2021/09/08 03:54:42;;;;;;;37.63;26.20;;;;;;;13.97;82.77;101723.66;5086234;28;20027;-61
2021/09/08 03:57:07;;;;;;;35.65;24.75;;;;;;;14.06;82.44;101713.91;5084907;28;20091;-61
2021/09/08 03:59:34;;;;;;;37.30;26.02;;;;;;;13.98;82.90;101717.41;5084340;28;20039;-62
2021/09/08 04:02:00;;;;;;;37.85;26.65;;;;;;;13.96;83.72;101714.75;5068236;28;20027;-63
2021/09/08 04:04:25;;;;;;;36.83;25.67;;;;;;;13.86;83.07;101711.19;5083355;28;20118;-63
2021/09/08 04:06:50;;;;;;;37.42;25.98;;;;;;;13.85;83.62;101709.41;5086545;28;20020;-63
2021/09/08 04:09:16;;;;;;;39.20;25.83;;;;;;;13.77;83.39;101711.13;5083980;28;20028;-65
2021/09/08 04:11:42;;;;;;;38.55;26.48;;;;;;;13.76;83.90;101714.66;5085319;28;20056;-62
2021/09/08 04:14:08;;;;;;;38.75;26.17;;;;;;;13.71;83.68;101708.47;5084965;28;20037;-65
2021/09/08 04:16:34;;;;;;;37.08;25.17;;;;;;;13.70;83.58;101711.97;5084313;28;20356;-62
2021/09/08 04:18:59;;;;;;;37.40;24.83;;;;;;;13.70;83.39;101709.31;5086105;28;20115;-62
2021/09/08 04:21:24;;;;;;;38.78;26.65;;;;;;;13.66;84.14;101705.78;5082876;28;20043;-62
2021/09/08 04:23:49;;;;;;;38.60;26.23;;;;;;;13.62;84.16;101703.97;5086470;28;20107;-62
2021/09/08 04:26:15;;;;;;;36.53;25.50;;;;;;;13.50;84.55;101702.16;5083663;28;20031;-62
2021/09/08 04:28:40;;;;;;;38.45;25.55;;;;;;;13.53;84.79;101707.47;5085017;28;20075;-62
2021/09/08 04:31:05;;;;;;;38.25;27.17;;;;;;;13.51;84.86;101700.38;5084708;28;20032;-62
2021/09/08 04:33:31;;;;;;;38.63;26.88;;;;;;;13.54;84.73;101706.59;5083651;28;20074;-64
2021/09/08 04:35:57;;;;;;;40.47;28.20;;;;;;;13.49;84.90;101702.13;5086073;28;20352;-64
2021/09/08 04:38:24;;;;;;;39.35;27.83;;;;;;;13.50;86.52;101704.81;5082500;28;20510;-61
2021/09/08 04:40:50;;;;;;;39.25;27.52;;;;;;;13.52;86.67;101703.03;5085661;28;20081;-62
2021/09/08 04:43:15;;;;;;;43.47;28.65;;;;;;;13.48;87.93;101703.00;5083410;28;20036;-62
2021/09/08 04:45:41;;;;;;;40.97;29.27;;;;;;;13.48;89.31;101700.34;5084709;28;20108;-72
2021/09/08 04:48:06;;;;;;;41.45;28.70;;;;;;;13.58;88.33;101700.41;5084196;28;20146;-72
2021/09/08 04:50:32;;;;;;;41.90;29.73;;;;;;;13.55;89.53;101703.03;5083256;28;20497;-70
2021/09/08 04:52:57;;;;;;;41.65;30.50;;;;;;;13.63;88.63;101697.81;5085242;28;20062;-71
2021/09/08 04:55:22;;;;;;;41.28;29.30;;;;;;;13.64;87.93;101696.03;5082474;28;20035;-73
2021/09/08 04:57:48;;;;;;;40.83;29.67;;;;;;;13.53;89.66;101696.84;5085482;28;20028;-73
2021/09/08 05:00:13;;;;;;;40.80;28.85;;;;;;;13.54;89.27;101693.31;5083112;28;20489;-72
2021/09/08 05:02:39;;;;;;;41.15;29.60;;;;;;;13.50;89.29;101683.56;5083847;28;20073;-67
2021/09/08 05:05:04;;;;;;;41.13;28.50;;;;;;;13.47;87.80;101693.25;5084476;28;20061;-72
2021/09/08 05:07:30;;;;;;;41.63;29.02;;;;;;;13.37;88.22;101687.03;5082555;28;20033;-72
2021/09/08 05:09:55;;;;;;;42.10;27.90;;;;;;;13.33;88.80;101690.50;5085611;28;20027;-72
2021/09/08 05:12:20;;;;;;;41.40;29.45;;;;;;;13.31;89.10;101692.25;5081746;28;20025;-70
2021/09/08 05:14:46;;;;;;;41.25;28.70;;;;;;;13.33;88.96;101690.50;5084566;28;20028;-70
2021/09/08 05:17:11;;;;;;;42.08;29.45;;;;;;;13.30;88.89;101686.06;5083305;28;20017;-69
2021/09/08 05:19:36;;;;;;;40.67;28.52;;;;;;;13.38;88.90;101688.78;5083199;28;20020;-68
2021/09/08 05:22:02;;;;;;;39.53;28.67;;;;;;;13.40;89.29;101692.34;5084195;28;20099;-72
2021/09/08 05:24:27;;;;;;;41.50;28.85;;;;;;;13.41;89.72;101688.78;5082426;28;20356;-69
2021/09/08 05:26:53;;;;;;;41.58;29.98;;;;;;;13.34;91.46;101686.94;5066415;28;20062;-69
2021/09/08 05:29:18;;;;;;;44.58;32.13;;;;;;;13.40;93.52;101681.72;5082087;28;20474;-69
2021/09/08 05:31:44;;;;;;;46.92;32.05;;;;;;;13.41;94.07;101679.09;5084401;28;20461;-70
2021/09/08 05:34:09;;;;;;;40.20;28.70;;;;;;;13.42;90.53;101682.63;5090948;28;20027;-73
2021/09/08 05:36:34;;;;;;;41.95;29.83;;;;;;;13.46;90.71;101684.41;5087553;28;20016;-69
2021/09/08 05:39:00;;;;;;;41.75;29.92;;;;;;;13.46;91.12;101686.19;5088166;28;20137;-72
2021/09/08 05:41:25;;;;;;;44.33;31.27;;;;;;;13.51;92.99;101684.44;5086882;28;20383;-71
2021/09/08 05:43:50;;;;;;;40.13;28.02;;;;;;;13.55;90.39;101681.78;5085818;28;20024;-69
2021/09/08 05:46:16;;;;;;;41.03;28.17;;;;;;;13.57;89.72;101682.72;5088529;28;20059;-70
2021/09/08 05:48:42;;;;;;;40.97;28.58;;;;;;;13.63;89.79;101689.81;5089680;28;20048;-70
2021/09/08 05:51:07;;;;;;;40.35;28.60;;;;;;;13.63;90.89;101687.16;5088430;28;20024;-69
2021/09/08 05:53:32;;;;;;;43.53;31.20;;;;;;;13.66;92.71;101683.63;5086913;28;20509;-73
2021/09/08 05:55:58;;;;;;;44.10;31.63;;;;;;;13.72;94.96;101689.00;5087792;28;20023;-73
2021/09/08 05:58:24;;;;;;;46.85;33.20;;;;;;;13.80;95.74;101686.34;5089912;28;20022;-71
2021/09/08 06:00:49;;;;;;;45.00;33.10;;;;;;;13.77;95.77;101681.91;5089470;28;20027;-69
2021/09/08 06:03:15;;;;;;;42.33;29.90;;;;;;;13.78;92.85;101681.91;5087688;28;20020;-70
2021/09/08 06:05:40;;;;;;;43.50;30.45;;;;;;;13.82;93.47;101680.16;5067272;28;20383;-69
2021/09/08 06:08:06;;;;;;;40.97;29.63;;;;;;;13.84;92.11;101683.72;5069714;28;20482;-72
2021/09/08 06:10:31;;;;;;;40.40;28.70;;;;;;;13.89;91.50;101679.31;5089926;28;20020;-73
2021/09/08 06:12:56;;;;;;;42.38;29.00;;;;;;;13.92;92.44;101675.75;5087231;28;20055;-68
2021/09/08 06:15:22;;;;;;;40.63;28.55;;;;;;;13.98;92.98;101677.56;5084585;28;20406;-70
2021/09/08 06:17:48;;;;;;;41.10;29.17;;;;;;;14.04;92.44;101669.63;5087889;28;20493;-73
2021/09/08 06:20:13;;;;;;;44.15;29.42;;;;;;;14.12;93.19;101678.50;5086470;28;20035;-70
2021/09/08 06:22:39;;;;;;;41.47;29.23;;;;;;;14.15;93.13;101678.50;5088841;28;21099;-70
2021/09/08 06:25:05;;;;;;;43.85;30.02;;;;;;;14.22;92.75;101674.97;5090003;28;20051;-73
2021/09/08 06:27:31;;;;;;;43.30;29.55;;;;;;;14.30;93.35;101673.22;5086886;28;20024;-71
2021/09/08 06:29:56;;;;;;;45.60;30.20;;;;;;;14.39;93.07;101682.13;5087132;28;20027;-73
2021/09/08 06:32:21;;;;;;;46.05;30.85;;;;;;;14.44;93.40;101672.34;5085695;28;20032;-67
2021/09/08 06:34:48;;;;;;;44.67;30.58;;;;;;;14.53;93.06;101676.81;5089169;28;20059;-70
2021/09/08 06:37:14;;;;;;;43.72;31.73;;;;;;;14.56;94.60;101672.38;5088791;28;20459;-71
2021/09/08 06:39:40;;;;;;;45.80;33.67;;;;;;;14.70;95.32;101666.22;5085799;28;20043;-71
2021/09/08 06:42:06;;;;;;;45.78;32.95;;;;;;;14.74;94.78;101668.00;5093040;28;20029;-70
2021/09/08 06:44:31;;;;;;;45.13;32.85;;;;;;;14.84;95.07;101661.78;5089683;28;20025;-71
2021/09/08 06:46:57;;;;;;;47.90;33.45;;;;;;;14.91;95.75;101665.31;5093490;28;20393;-70
2021/09/08 06:49:22;;;;;;;49.67;33.92;;;;;;;15.03;95.28;101662.66;5089654;28;20048;-71
2021/09/08 06:51:48;;;;;;;47.58;33.17;;;;;;;15.12;96.00;101659.97;5092224;28;20486;-71
2021/09/08 06:54:13;;;;;;;46.92;34.22;;;;;;;15.23;96.11;101654.63;5087231;28;20485;-73
2021/09/08 06:56:39;;;;;;;45.08;32.63;;;;;;;15.29;95.75;101649.28;5090089;28;20039;-73
2021/09/08 06:59:04;;;;;;;45.00;32.47;;;;;;;15.39;95.65;101647.50;5089845;28;20024;-71
2021/09/08 07:01:30;;;;;;;46.63;32.28;;;;;;;15.46;95.45;101641.22;5090606;28;20107;-72
2021/09/08 07:03:55;;;;;;;45.00;32.80;;;;;;;15.61;95.81;101642.97;5087606;28;20085;-73
2021/09/08 07:06:22;;;;;;;45.60;32.67;;;;;;;15.78;93.16;101642.00;5087050;28;20060;-71
2021/09/08 07:08:52;;;;;;;47.28;32.05;;;;;;;15.83;95.30;101643.78;5089767;28;20021;-71
2021/09/08 07:11:18;;;;;;;44.50;30.98;;;;;;;15.98;91.82;101644.63;5091250;28;20024;-73
2021/09/08 07:13:44;;;;;;;44.35;30.85;;;;;;;16.02;91.82;101635.72;5092064;28;20062;-72
2021/09/08 07:16:10;;;;;;;44.95;30.65;;;;;;;16.20;90.16;101632.03;5094624;28;20059;-72
2021/09/08 07:18:35;;;;;;;44.40;29.67;;;;;;;16.29;88.40;101631.09;5089655;28;20020;-73
2021/09/08 07:21:01;;;;;;;44.35;29.98;;;;;;;16.28;90.31;101635.53;5088845;28;20081;-68
2021/09/08 07:23:27;;;;;;;42.47;29.50;;;;;;;16.37;89.21;101632.78;5089372;28;20095;-68
2021/09/08 07:25:53;;;;;;;42.42;29.83;;;;;;;16.48;89.07;101637.16;5090215;28;20114;-68
2021/09/08 07:28:18;;;;;;;42.85;29.17;;;;;;;16.55;89.20;101629.09;5068832;28;20348;-69
2021/09/08 07:30:45;;;;;;;42.22;29.40;;;;;;;16.72;88.25;101636.09;5090777;28;20096;-70
2021/09/08 07:33:11;;;;;;;42.83;27.75;;;;;;;16.84;85.91;101630.63;5091662;28;20063;-69
2021/09/08 07:35:36;;;;;;;41.85;28.38;;;;;;;16.95;85.69;101635.91;5090913;28;20048;-69
2021/09/08 07:38:01;;;;;;;41.28;28.48;;;;;;;17.02;86.57;101626.03;5091261;28;20024;-69
2021/09/08 07:40:27;;;;;;;42.08;28.63;;;;;;;17.14;84.56;101628.59;5088672;28;20424;-69
2021/09/08 07:42:53;;;;;;;41.55;27.30;;;;;;;17.24;85.17;101626.69;5091044;28;20028;-69
2021/09/08 07:45:18;;;;;;;41.70;28.08;;;;;;;17.36;84.92;101629.25;5087935;28;20021;-69
2021/09/08 07:47:44;;;;;;;40.65;27.25;;;;;;;17.53;82.21;101626.38;5084636;28;20028;-69
2021/09/08 07:50:10;;;;;;;40.22;27.20;;;;;;;17.69;80.73;101627.06;5084651;28;20402;-68
2021/09/08 07:52:35;;;;;;;42.42;26.83;;;;;;;17.77;79.73;101614.47;5082122;28;20436;-68
2021/09/08 07:55:02;;;;;;;39.22;26.15;;;;;;;17.82;79.85;101616.22;5085698;28;20028;-69
2021/09/08 07:57:27;;;;;;;40.22;25.02;;;;;;;17.91;77.68;101606.31;5082382;28;20055;-66
2021/09/08 07:59:52;;;;;;;38.17;25.25;;;;;;;18.03;77.76;101615.94;5084212;28;20642;-66
2021/09/08 08:02:18;;;;;;;37.10;24.65;;;;;;;18.19;77.94;101613.03;5083472;28;20085;-66
2021/09/08 08:04:43;;;;;;;37.70;23.90;;;;;;;18.24;76.88;101612.03;5083674;28;20147;-67
2021/09/08 08:07:08;;;;;;;38.63;24.13;;;;;;;18.32;76.39;101616.41;5085257;28;20466;-70
2021/09/08 08:09:34;;;;;;;39.05;24.15;;;;;;;18.38;75.31;101603.81;5082247;28;20025;-70
2021/09/08 08:11:59;;;;;;;36.25;23.65;;;;;;;18.46;75.04;101604.59;5059239;28;20122;-65
2021/09/08 08:14:24;;;;;;;39.35;24.17;;;;;;;18.55;75.52;101608.00;5084631;28;20147;-64
2021/09/08 08:16:51;;;;;;;37.38;23.88;;;;;;;18.70;76.65;101613.09;5083809;28;20111;-64
2021/09/08 08:19:16;;;;;;;38.25;24.65;;;;;;;18.81;74.43;101611.13;5083647;28;20028;-66
2021/09/08 08:21:42;;;;;;;36.60;23.17;;;;;;;18.90;74.48;101610.09;5084311;28;20135;-67
2021/09/08 08:24:07;;;;;;;39.17;23.33;;;;;;;18.97;73.00;101610.84;5082341;28;20038;-65
2021/09/08 08:26:33;;;;;;;35.65;22.83;;;;;;;19.05;73.30;101608.94;5085443;28;20028;-70
2021/09/08 08:28:58;;;;;;;36.33;22.73;;;;;;;19.15;74.28;101602.47;5082074;28;20032;-65
2021/09/08 08:31:24;;;;;;;38.35;23.65;;;;;;;19.22;72.79;101611.31;5084451;28;20035;-67
2021/09/08 08:33:49;;;;;;;38.35;23.17;;;;;;;19.41;72.92;101606.44;5083414;28;20047;-66
2021/09/08 08:36:15;;;;;;;37.35;23.48;;;;;;;19.70;70.60;101615.66;5083036;28;20024;-65
2021/09/08 08:38:42;;;;;;;36.15;21.88;;;;;;;20.17;68.35;101610.19;5084689;28;20055;-68
2021/09/08 08:41:08;;;;;;;35.45;21.08;;;;;;;20.63;67.23;101611.72;5081834;28;20487;-74
2021/09/08 08:43:34;;;;;;;33.90;20.65;;;;;;;20.93;65.87;101608.34;5084840;28;20024;-65
2021/09/08 08:46:00;;;;;;;33.60;20.30;;;;;;;21.49;63.64;101608.50;5081626;28;20021;-69
2021/09/08 08:48:26;;;;;;;33.93;20.23;;;;;;;22.46;59.59;101600.16;5045590;28;1093258;-70
2021/09/08 08:50:52;;;;;;;33.10;19.25;;;;;;;23.31;56.70;101608.03;5083706;28;20039;-71
2021/09/08 08:53:17;;;;;;;33.25;18.60;;;;;;;24.15;54.03;101603.00;5083789;28;20039;-69
2021/09/08 08:55:42;;;;;;;33.05;18.58;;;;;;;24.65;51.93;101601.84;5085003;28;20034;-69
2021/09/08 08:58:08;;;;;;;33.53;18.65;;;;;;;24.99;50.42;101618.44;5082708;28;20463;-68
2021/09/08 09:00:34;;;;;;;30.75;18.25;;;;;;;25.29;49.15;101608.06;5085473;28;20372;-70
2021/09/08 09:02:59;;;;;;;34.55;18.27;;;;;;;25.83;48.68;101605.56;5081647;28;20460;-68
2021/09/08 09:05:31;;;;;;;33.03;18.27;;;;;;;26.32;48.61;101601.47;5084968;28;20017;-71
2021/09/08 09:07:57;;;;;;;31.33;17.98;;;;;;;26.17;46.88;101608.50;5085314;28;20031;-73
2021/09/08 09:10:23;;;;;;;33.42;18.25;;;;;;;25.58;47.63;101605.88;5086417;28;20035;-73
2021/09/08 09:12:49;;;;;;;31.90;18.38;;;;;;;25.20;48.46;101603.09;5070907;28;20038;-66
2021/09/08 09:15:20;;;;;;;32.15;18.13;;;;;;;25.06;49.97;101604.59;5087025;28;20025;-65
2021/09/08 09:17:46;;;;;;;33.05;17.92;;;;;;;25.05;49.28;101601.94;5087371;28;20021;-72
2021/09/08 09:20:21;;;;;;;33.78;19.20;;;;;;;24.92;49.75;101609.72;5072304;28;20030;-71
2021/09/08 09:22:51;;;;;;;35.33;19.10;;;;;;;25.17;49.68;101604.09;5088049;28;20039;-73
2021/09/08 09:25:20;;;;;;;31.95;18.63;;;;;;;25.26;48.80;101608.19;5086046;28;20100;-73
2021/09/08 09:27:48;;;;;;;32.65;18.77;;;;;;;25.26;49.14;101600.09;5088144;28;20032;-72
2021/09/08 09:30:17;;;;;;;33.75;19.00;;;;;;;25.17;48.37;101604.09;5091174;28;20160;-74
2021/09/08 09:32:45;;;;;;;33.35;18.23;;;;;;;25.26;49.03;101593.81;5090539;28;20058;-77
2021/09/08 09:35:14;;;;;;;34.35;18.95;;;;;;;25.36;49.10;101596.03;5090042;28;20019;-76
2021/09/08 09:37:46;;;;;;;34.67;18.95;;;;;;;25.61;48.82;101594.91;5070181;28;20028;-72
2021/09/08 09:40:13;;;;;;;33.72;18.85;;;;;;;26.17;46.38;101586.84;5085644;28;20036;-73
2021/09/08 09:42:40;;;;;;;35.67;19.13;;;;;;;26.92;44.53;101584.88;5088707;28;20053;-71
2021/09/08 09:45:07;;;;;;;31.63;18.10;;;;;;;27.88;42.84;101583.25;5089477;28;20027;-69
2021/09/08 09:47:35;;;;;;;33.92;19.05;;;;;;;28.55;40.60;101582.16;5090820;28;20019;-76
2021/09/08 09:50:03;;;;;;;32.92;18.02;;;;;;;29.13;40.94;101578.59;5089519;28;20055;-74
2021/09/08 09:52:29;;;;;;;32.60;17.65;;;;;;;30.01;38.22;101574.84;5088131;28;20035;-73
2021/09/08 09:54:54;;;;;;;32.38;18.13;;;;;;;30.44;37.15;101569.28;5068513;28;20016;-76
2021/09/08 09:57:21;;;;;;;34.67;18.30;;;;;;;30.79;37.07;101563.22;5087449;28;20016;-72
2021/09/08 09:59:47;;;;;;;33.17;17.85;;;;;;;31.33;35.75;101562.16;5086694;28;20386;-73
2021/09/08 10:02:13;;;;;;;33.75;18.40;;;;;;;31.63;35.91;101569.13;5087474;28;20498;-73
2021/09/08 10:04:38;;;;;;;33.03;19.02;;;;;;;31.65;35.39;101560.81;5088494;28;20032;-77
2021/09/08 10:07:06;;;;;;;30.45;16.75;;;;;;;30.85;36.34;101557.31;5068261;28;21519;-78
2021/09/08 10:09:33;;;;;;;32.40;17.80;;;;;;;30.04;37.71;101550.13;5087464;28;20059;-74
2021/09/08 10:12:04;;;;;;;33.55;19.42;;;;;;;29.39;39.35;101548.88;5085136;28;20032;-74
2021/09/08 10:14:32;;;;;;;31.35;17.48;;;;;;;29.28;40.17;101552.28;5088691;28;20115;-73
2021/09/08 10:17:03;;;;;;;35.63;20.15;;;;;;;29.19;40.86;101545.53;5087678;28;20032;-73
2021/09/08 10:19:30;;;;;;;33.30;19.25;;;;;;;29.25;41.55;101538.88;5086096;28;20028;-73
2021/09/08 10:22:06;;;;;;;35.47;20.60;;;;;;;29.41;40.78;101527.88;5087763;28;20029;-73
2021/09/08 10:24:31;;;;;;;34.67;19.70;;;;;;;30.22;39.90;101528.94;5086069;28;20020;-72
2021/09/08 10:26:56;;;;;;;33.35;19.02;;;;;;;31.28;37.31;101526.09;5089664;28;20020;-75
2021/09/08 10:29:29;;;;;;;33.40;19.58;;;;;;;32.38;34.95;101524.31;5089208;28;20043;-74
2021/09/08 10:31:58;;;;;;;33.45;18.92;;;;;;;33.24;33.12;101524.88;5087732;28;20085;-75
2021/09/08 10:34:24;;;;;;;32.45;18.48;;;;;;;33.45;31.91;101518.63;5082905;28;20025;-71
2021/09/08 10:36:50;;;;;;;34.67;18.58;;;;;;;33.95;32.28;101512.69;5083281;28;20020;-74
2021/09/08 10:39:18;;;;;;;33.08;18.23;;;;;;;34.79;30.65;101517.41;5087058;28;20024;-71
2021/09/08 10:41:49;;;;;;;32.92;19.33;;;;;;;35.40;29.52;101517.44;5086671;28;20024;-72
2021/09/08 10:44:17;;;;;;;33.77;20.03;;;;;;;35.24;29.89;101512.44;5083728;28;20421;-73
2021/09/08 10:46:57;;;;;;;32.30;18.48;;;;;;;35.86;30.56;101505.97;5089959;28;20423;-76
2021/09/08 10:49:41;;;;;;;33.58;19.98;;;;;;;36.18;29.52;101494.69;5085769;28;20046;-75
2021/09/08 10:52:15;;;;;;;34.03;19.85;;;;;;;36.04;29.09;101492.38;5081952;28;20111;-76
2021/09/08 10:54:58;;;;;;;32.35;18.92;;;;;;;35.35;30.62;101499.63;5086482;28;20028;-70
2021/09/08 10:57:38;;;;;;;31.10;17.92;;;;;;;33.76;30.47;101488.72;5086162;28;20052;-74
2021/09/08 11:00:05;;;;;;;30.27;16.80;;;;;;;32.84;31.97;101489.75;5087891;28;20043;-75
2021/09/08 11:02:30;;;;;;;31.23;17.80;;;;;;;32.92;32.63;101484.50;5086818;28;20099;-72
2021/09/08 11:04:59;;;;;;;28.98;16.13;;;;;;;33.29;32.76;101487.03;5064078;28;20526;-73